Thunder radar more information blitzortung!


Radar de pluja more information rain snow radar


Visita la nostra xarxa de llocs de meteo:

Template documentation
and downloads

And another site



No particular awareness of the weather is required.    There are no Weather-warnings

Pagina Historial Weather Underground text

Diari Resum Marc 4, 2016 Unitats:  Mètric    Imperial   Tant
« Previous Dia
SegĂźent Dia »
Diari Setmana Mensual Anual Personalitzada
  Maxima: Minima: Media:
Temperatura: 17.3 °C 8.0 °C 12.9 °C
Punt de rosada: 6.5 °C -1.0 °C 4.4 °C
Humitat: 76 % 39 % 58 %
Wind Speed: 29.1 km/h 0.0 km/h 9.7 km/h
RĂ fegues de vent: 29.1 km/h - -
Vent:- - SW
Pression baro: 1011.7 hPa 997.9 hPa -
Precipitacions: 0.0 mm    
Historical Graphs
 
 
Dades de taula per Marc 4, 2016
Temps Temperatura Punt de rosada Pression baro Vent Wind Speed RĂ fegues de vent Humitat Rainfall Rate (Hourly)
03:10 8.1 °C 1.7 °C 1011.7 hPa WSW 3.2 km/h 3.2 km/h 64 % 0.0 mm
03:20 8.7 °C 2.3 °C 1011.7 hPa WSW 4.8 km/h 6.4 km/h 64 % 0.0 mm
03:30 9.4 °C 2.7 °C 1011.7 hPa West 3.2 km/h 3.2 km/h 63 % 0.0 mm
03:40 9.6 °C 2.9 °C 1010.7 hPa West 1.6 km/h 3.2 km/h 63 % 0.0 mm
03:50 10.1 °C 3.2 °C 1010.0 hPa WSW 1.6 km/h 3.2 km/h 62 % 0.0 mm
04:00 9.9 °C 2.9 °C 1010.0 hPa WSW 3.2 km/h 3.2 km/h 62 % 0.0 mm
04:10 10.0 °C 2.8 °C 1010.7 hPa WSW 4.8 km/h 6.4 km/h 61 % 0.0 mm
04:20 10.3 °C 3.1 °C 1010.0 hPa WSW 1.6 km/h 4.8 km/h 61 % 0.0 mm
04:30 10.8 °C 3.6 °C 1010.0 hPa WSW 3.2 km/h 6.4 km/h 61 % 0.0 mm
04:40 11.3 °C 3.8 °C 1010.0 hPa WSW 3.2 km/h 4.8 km/h 60 % 0.0 mm
10:43 11.5 °C 3.5 °C 1010.0 hPa SW 5.6 km/h 5.6 km/h 58 % 0.0 mm
10:48 11.5 °C 3.5 °C 1010.0 hPa SW 5.6 km/h 5.6 km/h 58 % 0.0 mm
10:53 11.8 °C 3.8 °C 1010.0 hPa SSW 7.4 km/h 7.4 km/h 58 % 0.0 mm
10:58 12.1 °C 3.8 °C 1010.0 hPa SE 3.7 km/h 3.7 km/h 57 % 0.0 mm
11:03 12.2 °C 3.7 °C 1010.0 hPa West 9.5 km/h 9.5 km/h 56 % 0.0 mm
11:08 12.4 °C 3.8 °C 1010.0 hPa SSW 9.0 km/h 9.0 km/h 56 % 0.0 mm
11:13 12.4 °C 3.6 °C 1010.0 hPa WSW 9.3 km/h 9.3 km/h 55 % 0.0 mm
11:18 12.8 °C 4.0 °C 1010.0 hPa WSW 11.1 km/h 11.1 km/h 55 % 0.0 mm
11:23 12.9 °C 4.1 °C 1010.0 hPa WSW 9.3 km/h 9.3 km/h 55 % 0.0 mm
11:28 13.3 °C 4.4 °C 1010.0 hPa SW 9.7 km/h 9.7 km/h 55 % 0.0 mm
11:33 13.2 °C 4.1 °C 1010.0 hPa SSW 9.3 km/h 9.3 km/h 54 % 0.0 mm
11:38 13.5 °C 4.4 °C 1010.0 hPa SSW 15.8 km/h 15.8 km/h 54 % 0.0 mm
11:43 13.5 °C 4.4 °C 1009.0 hPa SW 13.0 km/h 13.0 km/h 54 % 0.0 mm
11:48 13.6 °C 4.2 °C 1009.0 hPa WSW 13.7 km/h 13.7 km/h 53 % 0.0 mm
11:53 13.8 °C 4.4 °C 1009.0 hPa SW 9.3 km/h 9.3 km/h 53 % 0.0 mm
11:58 13.9 °C 4.4 °C 1009.0 hPa WSW 13.0 km/h 13.0 km/h 53 % 0.0 mm
12:03 14.1 °C 4.7 °C 1009.0 hPa WSW 9.5 km/h 9.5 km/h 53 % 0.0 mm
12:08 14.2 °C 4.7 °C 1009.0 hPa SSW 13.0 km/h 13.0 km/h 53 % 0.0 mm
12:13 14.9 °C 5.4 °C 1008.0 hPa WSW 9.3 km/h 9.3 km/h 53 % 0.0 mm
12:18 15.1 °C 5.3 °C 1008.0 hPa West 13.7 km/h 13.7 km/h 52 % 0.0 mm
12:23 14.8 °C 4.8 °C 1008.0 hPa SSW 16.7 km/h 16.7 km/h 51 % 0.0 mm
12:28 15.1 °C 5.1 °C 1008.0 hPa WSW 13.7 km/h 13.7 km/h 51 % 0.0 mm
12:33 14.9 °C 4.8 °C 1008.0 hPa SSW 22.2 km/h 22.2 km/h 51 % 0.0 mm
12:38 15.0 °C 4.7 °C 1008.0 hPa SW 20.4 km/h 20.4 km/h 50 % 0.0 mm
12:43 15.3 °C 4.9 °C 1008.0 hPa SW 18.5 km/h 18.5 km/h 50 % 0.0 mm
12:48 15.4 °C 5.0 °C 1008.0 hPa SSW 20.4 km/h 20.4 km/h 50 % 0.0 mm
12:53 15.5 °C 4.8 °C 1008.0 hPa SW 16.7 km/h 16.7 km/h 49 % 0.0 mm
12:58 15.4 °C 4.7 °C 1007.0 hPa SW 18.5 km/h 18.5 km/h 49 % 0.0 mm
13:03 15.8 °C 5.4 °C 1007.0 hPa SW 13.0 km/h 13.0 km/h 50 % 0.0 mm
13:08 15.6 °C 4.9 °C 1007.0 hPa South 22.2 km/h 22.2 km/h 49 % 0.0 mm
13:13 16.0 °C 5.3 °C 1007.0 hPa SW 20.4 km/h 20.4 km/h 49 % 0.0 mm
13:18 15.7 °C 5.0 °C 1007.0 hPa WSW 22.2 km/h 22.2 km/h 49 % 0.0 mm
13:23 15.9 °C 5.2 °C 1007.0 hPa WSW 20.4 km/h 20.4 km/h 49 % 0.0 mm
13:28 16.2 °C 5.4 °C 1007.0 hPa SW 13.0 km/h 13.0 km/h 49 % 0.0 mm
13:33 16.5 °C 5.4 °C 1007.0 hPa SSW 22.2 km/h 22.2 km/h 48 % 0.0 mm
13:38 16.6 °C 5.6 °C 1007.0 hPa SW 22.2 km/h 22.2 km/h 48 % 0.0 mm
13:43 16.5 °C 5.4 °C 1007.0 hPa SSW 11.1 km/h 11.1 km/h 48 % 0.0 mm
13:48 16.4 °C 5.1 °C 1007.0 hPa SW 23.7 km/h 23.7 km/h 47 % 0.0 mm
13:53 15.9 °C 4.6 °C 1007.0 hPa SW 17.5 km/h 17.5 km/h 47 % 0.0 mm
13:58 16.3 °C 4.9 °C 1007.0 hPa SW 11.4 km/h 11.4 km/h 47 % 0.0 mm
14:03 16.6 °C 5.2 °C 1007.0 hPa SW 25.9 km/h 25.9 km/h 47 % 0.0 mm
14:08 16.6 °C 4.9 °C 1007.0 hPa SW 14.8 km/h 14.8 km/h 46 % 0.0 mm
14:18 17.1 °C 4.7 °C 1006.0 hPa WSW 27.8 km/h 27.8 km/h 44 % 0.0 mm
14:23 16.8 °C 4.4 °C 1006.0 hPa WNW 15.1 km/h 15.1 km/h 44 % 0.0 mm
14:28 16.8 °C 4.2 °C 1006.0 hPa SW 27.8 km/h 27.8 km/h 43 % 0.0 mm
14:33 16.9 °C 4.2 °C 1006.0 hPa SSW 13.0 km/h 13.0 km/h 43 % 0.0 mm
14:38 17.3 °C 4.3 °C 1006.0 hPa SW 23.0 km/h 23.0 km/h 42 % 0.0 mm
14:43 16.8 °C 3.4 °C 1006.0 hPa WNW 27.8 km/h 27.8 km/h 41 % 0.0 mm
14:48 17.2 °C 3.4 °C 1006.0 hPa SW 18.5 km/h 18.5 km/h 40 % 0.0 mm
14:53 17.1 °C 3.4 °C 1006.0 hPa SW 23.0 km/h 23.0 km/h 40 % 0.0 mm
14:58 16.8 °C 2.8 °C 1006.0 hPa SSW 16.9 km/h 16.9 km/h 39 % 0.0 mm
15:03 16.9 °C 2.8 °C 1006.0 hPa WSW 12.6 km/h 12.6 km/h 39 % 0.0 mm
15:08 16.9 °C 2.8 °C 1006.0 hPa SW 25.1 km/h 25.1 km/h 39 % 0.0 mm
15:13 16.6 °C 2.6 °C 1006.0 hPa SW 23.7 km/h 23.7 km/h 39 % 0.0 mm
15:18 16.6 °C 2.9 °C 1006.0 hPa WSW 18.5 km/h 18.5 km/h 40 % 0.0 mm
15:23 16.5 °C 2.5 °C 1006.0 hPa SW 27.8 km/h 27.8 km/h 39 % 0.0 mm
15:28 16.6 °C 2.9 °C 1005.0 hPa West 16.7 km/h 16.7 km/h 40 % 0.0 mm
15:33 16.5 °C 2.8 °C 1005.0 hPa SSE 22.2 km/h 22.2 km/h 40 % 0.0 mm
15:38 16.4 °C 3.1 °C 1005.0 hPa WSW 14.0 km/h 14.0 km/h 41 % 0.0 mm
15:43 16.4 °C 3.1 °C 1005.0 hPa SSW 24.1 km/h 24.1 km/h 41 % 0.0 mm
15:48 16.2 °C 2.9 °C 1005.0 hPa SW 20.4 km/h 20.4 km/h 41 % 0.0 mm
15:53 16.4 °C 3.1 °C 1005.0 hPa WSW 18.5 km/h 18.5 km/h 41 % 0.0 mm
15:58 16.2 °C 3.3 °C 1003.9 hPa SW 16.7 km/h 16.7 km/h 42 % 0.0 mm
16:03 16.2 °C 2.9 °C 1003.9 hPa SSW 29.1 km/h 29.1 km/h 41 % 0.0 mm
16:08 16.2 °C 2.9 °C 1003.9 hPa SW 14.8 km/h 14.8 km/h 41 % 0.0 mm
16:13 16.2 °C 3.3 °C 1003.9 hPa WSW 17.5 km/h 17.5 km/h 42 % 0.0 mm
16:18 16.0 °C 3.1 °C 1003.9 hPa SSW 20.4 km/h 20.4 km/h 42 % 0.0 mm
16:23 16.1 °C 3.2 °C 1003.9 hPa WSW 11.1 km/h 11.1 km/h 42 % 0.0 mm
16:28 16.1 °C 3.5 °C 1002.9 hPa WSW 20.6 km/h 20.6 km/h 43 % 0.0 mm
16:33 15.8 °C 3.2 °C 1002.9 hPa SW 18.5 km/h 18.5 km/h 43 % 0.0 mm
16:38 15.6 °C 3.4 °C 1002.9 hPa SW 22.2 km/h 22.2 km/h 44 % 0.0 mm
16:43 15.4 °C 3.5 °C 1002.9 hPa SW 18.5 km/h 18.5 km/h 45 % 0.0 mm
16:48 15.6 °C 3.7 °C 1002.9 hPa SSW 16.7 km/h 16.7 km/h 45 % 0.0 mm
16:53 15.1 °C 3.8 °C 1002.9 hPa WSW 24.1 km/h 24.1 km/h 47 % 0.0 mm
16:58 14.8 °C 3.6 °C 1002.9 hPa SW 14.8 km/h 14.8 km/h 47 % 0.0 mm
17:03 14.4 °C 3.8 °C 1002.9 hPa SW 20.4 km/h 20.4 km/h 49 % 0.0 mm
17:08 14.4 °C 4.1 °C 1002.9 hPa WSW 13.0 km/h 13.0 km/h 50 % 0.0 mm
17:13 14.3 °C 4.3 °C 1002.9 hPa WSW 20.9 km/h 20.9 km/h 51 % 0.0 mm
17:18 14.2 °C 4.2 °C 1002.9 hPa SSW 16.4 km/h 16.4 km/h 51 % 0.0 mm
17:23 14.2 °C 4.5 °C 1002.9 hPa SW 14.8 km/h 14.8 km/h 52 % 0.0 mm
17:28 14.0 °C 4.3 °C 1002.9 hPa WSW 16.7 km/h 16.7 km/h 52 % 0.0 mm
17:30 10.1 °C 5.9 °C 998.9 hPa Calm     75 % 0.0 mm
17:33 14.0 °C 4.6 °C 1002.9 hPa SW 11.1 km/h 11.1 km/h 53 % 0.0 mm
17:38 13.7 °C 4.6 °C 1002.9 hPa SW 14.8 km/h 14.8 km/h 54 % 0.0 mm
17:40 10.2 °C 5.8 °C 998.9 hPa East 1.6 km/h 1.6 km/h 74 % 0.0 mm
17:43 13.9 °C 4.7 °C 1002.9 hPa SW 16.1 km/h 16.1 km/h 54 % 0.0 mm
17:48 13.8 °C 4.9 °C 1002.9 hPa SSW 11.1 km/h 11.1 km/h 55 % 0.0 mm
17:50 10.3 °C 6.3 °C 998.9 hPa Calm     76 % 0.0 mm
17:53 13.8 °C 5.2 °C 1002.9 hPa WSW 16.7 km/h 16.7 km/h 56 % 0.0 mm
17:58 13.7 °C 5.3 °C 1002.9 hPa WSW 14.8 km/h 14.8 km/h 57 % 0.0 mm
18:00 10.3 °C 6.3 °C 998.9 hPa West 3.2 km/h 6.4 km/h 76 % 0.0 mm
18:03 13.5 °C 5.4 °C 1002.9 hPa WSW 14.8 km/h 14.8 km/h 58 % 0.0 mm
18:08 13.3 °C 5.2 °C 1002.9 hPa SSW 13.0 km/h 13.0 km/h 58 % 0.0 mm
18:10 10.5 °C 6.3 °C 998.9 hPa West 1.6 km/h 4.8 km/h 75 % 0.0 mm
18:13 13.1 °C 5.3 °C 1001.9 hPa SW 13.0 km/h 13.0 km/h 59 % 0.0 mm
18:18 13.1 °C 5.3 °C 1001.9 hPa WSW 7.4 km/h 7.4 km/h 59 % 0.0 mm
18:20 10.7 °C 5.8 °C 999.9 hPa West 3.2 km/h 3.2 km/h 72 % 0.0 mm
18:23 13.0 °C 5.2 °C 1001.9 hPa SW 5.6 km/h 5.6 km/h 59 % 0.0 mm
18:28 12.9 °C 5.3 °C 1001.9 hPa WSW 9.3 km/h 9.3 km/h 60 % 0.0 mm
18:30 11.0 °C 5.7 °C 999.9 hPa WNW 3.2 km/h 3.2 km/h 70 % 0.0 mm
18:34 12.9 °C 5.3 °C 1001.9 hPa SW 9.3 km/h 9.3 km/h 60 % 0.0 mm
18:39 12.8 °C 5.4 °C 1001.9 hPa SSW 11.1 km/h 11.1 km/h 61 % 0.0 mm
18:40 11.4 °C 5.7 °C 999.9 hPa West 1.6 km/h 6.4 km/h 68 % 0.0 mm
18:44 12.8 °C 5.4 °C 1001.9 hPa WSW 9.3 km/h 9.3 km/h 61 % 0.0 mm
18:49 12.7 °C 5.4 °C 1001.9 hPa SW 7.4 km/h 7.4 km/h 61 % 0.0 mm
18:50 11.6 °C 5.4 °C 999.9 hPa West 11.3 km/h 12.9 km/h 66 % 0.0 mm
18:54 12.7 °C 5.6 °C 1001.9 hPa SSW 9.3 km/h 9.3 km/h 62 % 0.0 mm
18:59 12.6 °C 5.5 °C 1001.9 hPa SSW 11.1 km/h 11.1 km/h 62 % 0.0 mm
19:00 11.7 °C 4.9 °C 999.9 hPa West 8.0 km/h 9.7 km/h 63 % 0.0 mm
19:04 12.6 °C 5.9 °C 1001.9 hPa SW 9.3 km/h 9.3 km/h 64 % 0.0 mm
19:09 12.5 °C 5.9 °C 1001.9 hPa SW 13.0 km/h 13.0 km/h 64 % 0.0 mm
19:10 11.6 °C 4.8 °C 999.9 hPa WSW 3.2 km/h 6.4 km/h 63 % 0.0 mm
19:14 12.5 °C 5.9 °C 1001.9 hPa SW 9.3 km/h 9.3 km/h 64 % 0.0 mm
19:19 12.4 °C 6.0 °C 1001.9 hPa SW 7.4 km/h 7.4 km/h 65 % 0.0 mm
19:20 11.6 °C 4.6 °C 998.9 hPa SW 4.8 km/h 6.4 km/h 62 % 0.0 mm
19:24 12.4 °C 6.0 °C 1001.9 hPa SW 7.4 km/h 7.4 km/h 65 % 0.0 mm
19:34 12.3 °C 5.9 °C 1001.9 hPa SW 7.4 km/h 7.4 km/h 65 % 0.0 mm
19:39 12.2 °C 6.1 °C 1001.9 hPa SSW 9.3 km/h 9.3 km/h 66 % 0.0 mm
19:40 12.0 °C 4.4 °C 998.9 hPa West 4.8 km/h 12.9 km/h 60 % 0.0 mm
19:44 12.2 °C 6.2 °C 1001.9 hPa WSW 7.4 km/h 7.4 km/h 67 % 0.0 mm
19:49 12.2 °C 6.4 °C 1001.9 hPa WSW 11.1 km/h 11.1 km/h 68 % 0.0 mm
19:50 12.0 °C 4.2 °C 998.9 hPa WSW 4.8 km/h 9.7 km/h 59 % 0.0 mm
19:54 12.1 °C 6.2 °C 1001.9 hPa West 6.4 km/h 6.4 km/h 67 % 0.0 mm
19:59 12.1 °C 6.2 °C 1001.9 hPa Calm     67 % 0.0 mm
20:00 11.9 °C 4.4 °C 998.9 hPa SW 3.2 km/h 9.7 km/h 60 % 0.0 mm
20:09 11.9 °C 5.9 °C 1001.9 hPa WSW 3.7 km/h 3.7 km/h 67 % 0.0 mm
20:10 11.9 °C 4.4 °C 998.9 hPa WSW 3.2 km/h 6.4 km/h 60 % 0.0 mm
20:14 11.9 °C 5.9 °C 1001.9 hPa SW 5.6 km/h 5.6 km/h 67 % 0.0 mm
20:19 11.8 °C 6.1 °C 1001.9 hPa SW 3.7 km/h 3.7 km/h 68 % 0.0 mm
20:20 11.8 °C 4.3 °C 998.9 hPa West 3.2 km/h 3.2 km/h 60 % 0.0 mm
20:24 11.8 °C 6.1 °C 1001.9 hPa WSW 7.4 km/h 7.4 km/h 68 % 0.0 mm
20:29 11.8 °C 6.1 °C 1001.9 hPa WSW 5.6 km/h 5.6 km/h 68 % 0.0 mm
20:30 11.8 °C 3.8 °C 998.9 hPa West 8.0 km/h 9.7 km/h 58 % 0.0 mm
20:34 11.8 °C 6.5 °C 1001.9 hPa SSE 2.6 km/h   70 % 0.0 mm
20:39 11.7 °C 6.2 °C 1001.9 hPa WSW 3.7 km/h 3.7 km/h 69 % 0.0 mm
20:40 11.6 °C 3.6 °C 998.9 hPa WNW 4.8 km/h 4.8 km/h 58 % 0.0 mm
20:44 11.7 °C 6.2 °C 1001.9 hPa SW 1.9 km/h 2.3 km/h 69 % 0.0 mm
20:49 11.7 °C 6.4 °C 1001.9 hPa Calm     70 % 0.0 mm
20:50 11.5 °C 3.5 °C 998.9 hPa West 1.6 km/h 6.4 km/h 58 % 0.0 mm
20:54 11.7 °C 6.2 °C 1001.9 hPa NNW 3.7 km/h 3.7 km/h 69 % 0.0 mm
20:59 11.6 °C 6.3 °C 1000.9 hPa Calm     70 % 0.0 mm
21:00 11.3 °C 3.1 °C 998.9 hPa WSW 3.2 km/h 8.0 km/h 57 % 0.0 mm
21:04 11.5 °C 6.2 °C 1000.9 hPa NNW 1.9 km/h   70 % 0.0 mm
21:09 11.5 °C 6.2 °C 1000.9 hPa Calm     70 % 0.0 mm
21:10 11.1 °C 2.7 °C 998.9 hPa WSW 8.0 km/h 8.0 km/h 56 % 0.0 mm
21:14 11.5 °C 6.4 °C 1000.9 hPa Calm     71 % 0.0 mm
21:19 11.4 °C 6.1 °C 1000.9 hPa North 1.9 km/h   70 % 0.0 mm
21:20 10.9 °C 2.2 °C 998.9 hPa WSW 4.8 km/h 9.7 km/h 55 % 0.0 mm
21:24 11.3 °C 6.0 °C 1000.9 hPa WSW 3.7 km/h 3.7 km/h 70 % 0.0 mm
21:29 11.3 °C 6.0 °C 999.9 hPa Calm     70 % 0.0 mm
21:30 10.6 °C 1.7 °C 998.9 hPa WSW 8.0 km/h 16.1 km/h 54 % 0.0 mm
21:34 11.3 °C 6.0 °C 999.9 hPa Calm     70 % 0.0 mm
21:39 11.2 °C 6.1 °C 999.9 hPa Calm     71 % 0.0 mm
21:40 10.4 °C 1.5 °C 998.9 hPa WSW 3.2 km/h 14.5 km/h 54 % 0.0 mm
21:44 11.2 °C 6.1 °C 999.9 hPa Calm     71 % 0.0 mm
21:49 11.1 °C 6.1 °C 999.9 hPa Calm     71 % 0.0 mm
21:50 10.2 °C 1.1 °C 998.9 hPa WSW 9.7 km/h 12.9 km/h 53 % 0.0 mm
21:54 11.0 °C 5.9 °C 999.9 hPa Calm     71 % 0.0 mm
21:59 10.8 °C 5.7 °C 999.9 hPa WNW 2.3 km/h   71 % 0.0 mm
22:00 10.0 °C 0.8 °C 998.9 hPa West 4.8 km/h 9.7 km/h 53 % 0.0 mm
22:04 10.8 °C 5.9 °C 999.9 hPa SSE 1.9 km/h   72 % 0.0 mm
22:09 10.7 °C 5.8 °C 999.9 hPa Calm     72 % 0.0 mm
22:10 9.8 °C 0.7 °C 997.9 hPa WSW 4.8 km/h 20.9 km/h 53 % 0.0 mm
22:14 10.6 °C 5.9 °C 999.9 hPa Calm     73 % 0.0 mm
22:19 10.4 °C 5.8 °C 999.9 hPa Calm     73 % 0.0 mm
22:20 9.6 °C 0.2 °C 997.9 hPa West 11.3 km/h 11.3 km/h 52 % 0.0 mm
22:24 10.3 °C 5.7 °C 999.9 hPa Calm     73 % 0.0 mm
22:29 10.2 °C 5.8 °C 998.9 hPa ESE 1.9 km/h 1.9 km/h 74 % 0.0 mm
22:30 9.4 °C 0.0 °C 997.9 hPa West 9.7 km/h 9.7 km/h 52 % 0.0 mm
22:34 10.2 °C 5.8 °C 998.9 hPa East 1.9 km/h   74 % 0.0 mm
22:39 10.2 °C 5.8 °C 998.9 hPa Calm     74 % 0.0 mm
22:40 9.2 °C -0.2 °C 997.9 hPa West 4.8 km/h 9.7 km/h 52 % 0.0 mm
22:44 10.2 °C 5.9 °C 998.9 hPa Calm     75 % 0.0 mm
22:49 10.2 °C 5.9 °C 998.9 hPa Calm     75 % 0.0 mm
22:50 9.1 °C -0.3 °C 998.9 hPa West 8.0 km/h 8.0 km/h 52 % 0.0 mm
22:54 10.2 °C 5.9 °C 998.9 hPa East 1.9 km/h 1.9 km/h 75 % 0.0 mm
22:59 10.2 °C 5.9 °C 998.9 hPa Calm     75 % 0.0 mm
23:00 9.0 °C -0.3 °C 998.9 hPa WNW 3.2 km/h 6.4 km/h 52 % 0.0 mm
23:04 10.1 °C 5.9 °C 998.9 hPa Calm     75 % 0.0 mm
23:09 10.0 °C 5.8 °C 998.9 hPa Calm     75 % 0.0 mm
23:10 8.8 °C -0.6 °C 998.9 hPa NNE 3.2 km/h 9.7 km/h 52 % 0.0 mm
23:14 10.0 °C 5.8 °C 998.9 hPa Calm     75 % 0.0 mm
23:19 10.1 °C 5.9 °C 998.9 hPa Calm     75 % 0.0 mm
23:20 8.6 °C -0.4 °C 999.9 hPa North 1.6 km/h 3.2 km/h 53 % 0.0 mm
23:24 10.1 °C 5.9 °C 998.9 hPa Calm     75 % 0.0 mm
23:30 8.4 °C -0.6 °C 999.9 hPa NW 4.8 km/h 12.9 km/h 53 % 0.0 mm
23:40 8.2 °C -0.8 °C 998.9 hPa West 4.8 km/h 6.4 km/h 53 % 0.0 mm
23:50 8.0 °C -1.0 °C 999.9 hPa WSW 3.2 km/h 9.7 km/h 53 % 0.0 mm
Meteo Sesrovires
Elogis d' Weather Underground - 3.5 mb

Guio original per  Jim McMurry - jmcmurry@mwt.net Adaptat per a la plantilla per  Wim van der Kuil - Leuven-Template.eu

Trobareu la nostra informacio del temps tambe a:

Weather Underground

AWEKAS